Terminal Aerodrome Forecast
Issued by NWS

Home | Current Version | Previous Version | Text Only | Print | Product List | Glossary On
Versions: 1 2 3 4 5 6 7 8 9 10 11 12 13 14 15
922
FTUS44 KLIX 111128
TAFMCB
TAF
KMCB 111128Z 1112/1212 20003KT P6SM SKC
     FM111500 25011G22KT P6SM FEW250
     FM112300 24007KT P6SM SKC
     FM120400 VRB03KT P6SM FEW250
      TEMPO 1208/1212 BKN008=

USA.gov is the U.S. government's official web portal to all federal, state and local government web resources and services.